sensor_id;sensor_type;location;lat;lon;timestamp;P1;durP1;ratioP1;P2;durP2;ratioP2
4521;SDS011;2273;48.464;11.926;2023-05-07T00:00:18;8.40;;;5.40;;
4521;SDS011;2273;48.464;11.926;2023-05-07T00:02:44;5.30;;;4.60;;
4521;SDS011;2273;48.464;11.926;2023-05-07T00:05:10;11.80;;;5.27;;
4521;SDS011;2273;48.464;11.926;2023-05-07T00:07:35;11.83;;;5.33;;
4521;SDS011;2273;48.464;11.926;2023-05-07T00:10:01;7.03;;;5.10;;
4521;SDS011;2273;48.464;11.926;2023-05-07T00:12:27;13.07;;;5.77;;
4521;SDS011;2273;48.464;11.926;2023-05-07T00:14:53;8.00;;;5.40;;
4521;SDS011;2273;48.464;11.926;2023-05-07T00:17:18;9.87;;;5.00;;
4521;SDS011;2273;48.464;11.926;2023-05-07T00:19:43;7.77;;;4.50;;
4521;SDS011;2273;48.464;11.926;2023-05-07T00:22:09;7.80;;;4.53;;
4521;SDS011;2273;48.464;11.926;2023-05-07T00:24:35;6.93;;;4.47;;
4521;SDS011;2273;48.464;11.926;2023-05-07T00:27:00;6.63;;;4.20;;
4521;SDS011;2273;48.464;11.926;2023-05-07T00:29:26;6.60;;;4.77;;
4521;SDS011;2273;48.464;11.926;2023-05-07T00:31:51;7.33;;;4.30;;
4521;SDS011;2273;48.464;11.926;2023-05-07T00:34:19;7.13;;;5.00;;
4521;SDS011;2273;48.464;11.926;2023-05-07T00:36:44;8.40;;;4.53;;
4521;SDS011;2273;48.464;11.926;2023-05-07T00:39:09;6.27;;;4.50;;
4521;SDS011;2273;48.464;11.926;2023-05-07T00:41:35;5.07;;;3.90;;
4521;SDS011;2273;48.464;11.926;2023-05-07T00:44:01;8.10;;;4.30;;
4521;SDS011;2273;48.464;11.926;2023-05-07T00:46:27;14.87;;;5.50;;
4521;SDS011;2273;48.464;11.926;2023-05-07T00:48:53;11.00;;;6.87;;
4521;SDS011;2273;48.464;11.926;2023-05-07T00:51:19;11.50;;;7.50;;
4521;SDS011;2273;48.464;11.926;2023-05-07T00:53:45;14.90;;;7.10;;
4521;SDS011;2273;48.464;11.926;2023-05-07T00:56:11;8.27;;;5.77;;
4521;SDS011;2273;48.464;11.926;2023-05-07T00:58:37;14.23;;;4.80;;
4521;SDS011;2273;48.464;11.926;2023-05-07T01:01:02;9.10;;;5.07;;
4521;SDS011;2273;48.464;11.926;2023-05-07T01:03:28;12.10;;;4.97;;
4521;SDS011;2273;48.464;11.926;2023-05-07T01:05:54;9.47;;;5.20;;
4521;SDS011;2273;48.464;11.926;2023-05-07T01:08:20;8.40;;;5.93;;
4521;SDS011;2273;48.464;11.926;2023-05-07T01:10:47;14.50;;;6.00;;
4521;SDS011;2273;48.464;11.926;2023-05-07T01:13:13;9.53;;;7.30;;
4521;SDS011;2273;48.464;11.926;2023-05-07T01:20:57;15.20;;;7.70;;
4521;SDS011;2273;48.464;11.926;2023-05-07T01:23:25;15.40;;;5.93;;
4521;SDS011;2273;48.464;11.926;2023-05-07T01:25:55;8.93;;;5.13;;
4521;SDS011;2273;48.464;11.926;2023-05-07T01:28:25;7.27;;;5.30;;
4521;SDS011;2273;48.464;11.926;2023-05-07T01:30:54;8.70;;;5.13;;
4521;SDS011;2273;48.464;11.926;2023-05-07T01:33:21;8.53;;;4.83;;
4521;SDS011;2273;48.464;11.926;2023-05-07T01:35:48;9.27;;;5.47;;
4521;SDS011;2273;48.464;11.926;2023-05-07T01:38:17;8.67;;;4.70;;
4521;SDS011;2273;48.464;11.926;2023-05-07T01:40:43;9.90;;;5.40;;
4521;SDS011;2273;48.464;11.926;2023-05-07T01:43:09;6.63;;;4.40;;
4521;SDS011;2273;48.464;11.926;2023-05-07T01:45:36;16.00;;;5.70;;
4521;SDS011;2273;48.464;11.926;2023-05-07T01:48:03;9.00;;;5.40;;
4521;SDS011;2273;48.464;11.926;2023-05-07T01:50:29;5.90;;;4.70;;
4521;SDS011;2273;48.464;11.926;2023-05-07T01:52:56;9.60;;;5.47;;
4521;SDS011;2273;48.464;11.926;2023-05-07T01:55:22;6.50;;;5.40;;
4521;SDS011;2273;48.464;11.926;2023-05-07T01:57:48;9.37;;;5.60;;
4521;SDS011;2273;48.464;11.926;2023-05-07T02:00:13;6.37;;;5.40;;
4521;SDS011;2273;48.464;11.926;2023-05-07T02:02:43;9.73;;;6.23;;
4521;SDS011;2273;48.464;11.926;2023-05-07T02:05:19;8.87;;;5.60;;
4521;SDS011;2273;48.464;11.926;2023-05-07T02:07:50;11.73;;;5.73;;
4521;SDS011;2273;48.464;11.926;2023-05-07T02:10:16;12.53;;;5.87;;
4521;SDS011;2273;48.464;11.926;2023-05-07T02:12:42;8.40;;;6.23;;
4521;SDS011;2273;48.464;11.926;2023-05-07T02:15:08;9.67;;;6.30;;
4521;SDS011;2273;48.464;11.926;2023-05-07T02:17:34;7.50;;;6.47;;
4521;SDS011;2273;48.464;11.926;2023-05-07T02:20:00;16.63;;;6.03;;
4521;SDS011;2273;48.464;11.926;2023-05-07T02:22:26;13.63;;;5.73;;
4521;SDS011;2273;48.464;11.926;2023-05-07T02:24:51;25.80;;;16.20;;
4521;SDS011;2273;48.464;11.926;2023-05-07T02:27:17;20.57;;;13.53;;
4521;SDS011;2273;48.464;11.926;2023-05-07T02:29:43;13.20;;;7.13;;
4521;SDS011;2273;48.464;11.926;2023-05-07T02:32:09;9.03;;;5.60;;
4521;SDS011;2273;48.464;11.926;2023-05-07T02:34:34;8.60;;;5.07;;
4521;SDS011;2273;48.464;11.926;2023-05-07T02:37:00;6.17;;;3.90;;
4521;SDS011;2273;48.464;11.926;2023-05-07T02:39:26;12.00;;;5.10;;
4521;SDS011;2273;48.464;11.926;2023-05-07T02:41:51;8.30;;;5.17;;
4521;SDS011;2273;48.464;11.926;2023-05-07T02:44:17;7.60;;;5.43;;
4521;SDS011;2273;48.464;11.926;2023-05-07T02:46:45;6.10;;;5.10;;
4521;SDS011;2273;48.464;11.926;2023-05-07T02:49:12;6.10;;;5.10;;
4521;SDS011;2273;48.464;11.926;2023-05-07T02:51:37;9.63;;;5.60;;
4521;SDS011;2273;48.464;11.926;2023-05-07T02:54:08;6.90;;;5.00;;
4521;SDS011;2273;48.464;11.926;2023-05-07T02:56:33;6.30;;;5.37;;
4521;SDS011;2273;48.464;11.926;2023-05-07T02:58:59;6.63;;;5.60;;
4521;SDS011;2273;48.464;11.926;2023-05-07T03:01:28;6.40;;;4.80;;
4521;SDS011;2273;48.464;11.926;2023-05-07T03:04:11;9.80;;;6.40;;
4521;SDS011;2273;48.464;11.926;2023-05-07T03:06:37;18.57;;;6.77;;
4521;SDS011;2273;48.464;11.926;2023-05-07T03:09:02;13.67;;;7.00;;
4521;SDS011;2273;48.464;11.926;2023-05-07T03:11:28;7.40;;;6.30;;
4521;SDS011;2273;48.464;11.926;2023-05-07T03:13:54;18.37;;;5.77;;
4521;SDS011;2273;48.464;11.926;2023-05-07T03:16:20;6.57;;;5.70;;
4521;SDS011;2273;48.464;11.926;2023-05-07T03:18:46;8.40;;;5.17;;
4521;SDS011;2273;48.464;11.926;2023-05-07T03:21:11;5.80;;;4.97;;
4521;SDS011;2273;48.464;11.926;2023-05-07T03:23:37;5.83;;;5.13;;
4521;SDS011;2273;48.464;11.926;2023-05-07T03:26:03;6.60;;;5.07;;
4521;SDS011;2273;48.464;11.926;2023-05-07T03:28:29;8.20;;;5.20;;
4521;SDS011;2273;48.464;11.926;2023-05-07T03:30:58;9.23;;;6.10;;
4521;SDS011;2273;48.464;11.926;2023-05-07T03:33:24;9.70;;;6.00;;
4521;SDS011;2273;48.464;11.926;2023-05-07T03:35:50;8.90;;;5.50;;
4521;SDS011;2273;48.464;11.926;2023-05-07T03:38:19;7.40;;;6.03;;
4521;SDS011;2273;48.464;11.926;2023-05-07T03:40:45;10.67;;;6.43;;
4521;SDS011;2273;48.464;11.926;2023-05-07T03:43:11;11.40;;;6.70;;
4521;SDS011;2273;48.464;11.926;2023-05-07T03:45:40;7.50;;;5.80;;
4521;SDS011;2273;48.464;11.926;2023-05-07T03:48:10;10.13;;;7.57;;
4521;SDS011;2273;48.464;11.926;2023-05-07T03:50:35;12.13;;;7.23;;
4521;SDS011;2273;48.464;11.926;2023-05-07T03:53:01;8.50;;;5.90;;
4521;SDS011;2273;48.464;11.926;2023-05-07T03:55:28;10.50;;;6.10;;
4521;SDS011;2273;48.464;11.926;2023-05-07T03:57:57;7.87;;;6.30;;
4521;SDS011;2273;48.464;11.926;2023-05-07T04:00:25;7.63;;;6.80;;
4521;SDS011;2273;48.464;11.926;2023-05-07T04:02:50;8.23;;;6.40;;
4521;SDS011;2273;48.464;11.926;2023-05-07T04:05:22;8.07;;;6.90;;
4521;SDS011;2273;48.464;11.926;2023-05-07T04:07:51;11.67;;;6.97;;
4521;SDS011;2273;48.464;11.926;2023-05-07T04:10:23;12.33;;;5.13;;
4521;SDS011;2273;48.464;11.926;2023-05-07T04:12:52;10.00;;;5.87;;
4521;SDS011;2273;48.464;11.926;2023-05-07T04:15:21;8.30;;;5.80;;
4521;SDS011;2273;48.464;11.926;2023-05-07T04:17:46;21.73;;;6.30;;
4521;SDS011;2273;48.464;11.926;2023-05-07T04:20:16;7.73;;;6.27;;
4521;SDS011;2273;48.464;11.926;2023-05-07T04:22:43;15.00;;;6.87;;
4521;SDS011;2273;48.464;11.926;2023-05-07T04:25:09;8.23;;;6.50;;
4521;SDS011;2273;48.464;11.926;2023-05-07T04:27:36;7.97;;;6.47;;
4521;SDS011;2273;48.464;11.926;2023-05-07T04:30:03;9.30;;;7.03;;
4521;SDS011;2273;48.464;11.926;2023-05-07T04:32:33;16.27;;;7.57;;
4521;SDS011;2273;48.464;11.926;2023-05-07T04:34:58;8.73;;;6.50;;
4521;SDS011;2273;48.464;11.926;2023-05-07T04:37:27;7.87;;;6.70;;
4521;SDS011;2273;48.464;11.926;2023-05-07T04:39:53;11.90;;;7.77;;
4521;SDS011;2273;48.464;11.926;2023-05-07T04:42:19;10.80;;;7.20;;
4521;SDS011;2273;48.464;11.926;2023-05-07T04:44:44;10.23;;;8.30;;
4521;SDS011;2273;48.464;11.926;2023-05-07T04:47:11;10.20;;;7.53;;
4521;SDS011;2273;48.464;11.926;2023-05-07T04:49:38;10.03;;;8.70;;
4521;SDS011;2273;48.464;11.926;2023-05-07T04:52:04;10.23;;;7.90;;
4521;SDS011;2273;48.464;11.926;2023-05-07T04:54:30;9.60;;;7.90;;
4521;SDS011;2273;48.464;11.926;2023-05-07T04:56:56;17.40;;;8.80;;
4521;SDS011;2273;48.464;11.926;2023-05-07T04:59:22;11.73;;;8.90;;
4521;SDS011;2273;48.464;11.926;2023-05-07T05:01:49;11.50;;;9.00;;
4521;SDS011;2273;48.464;11.926;2023-05-07T05:04:14;12.60;;;8.50;;
4521;SDS011;2273;48.464;11.926;2023-05-07T05:06:40;11.27;;;8.57;;
4521;SDS011;2273;48.464;11.926;2023-05-07T05:09:06;9.73;;;7.17;;
4521;SDS011;2273;48.464;11.926;2023-05-07T05:11:33;10.17;;;7.27;;
4521;SDS011;2273;48.464;11.926;2023-05-07T05:13:59;11.60;;;8.70;;
4521;SDS011;2273;48.464;11.926;2023-05-07T05:16:25;11.03;;;7.80;;
4521;SDS011;2273;48.464;11.926;2023-05-07T05:18:52;10.37;;;7.60;;
4521;SDS011;2273;48.464;11.926;2023-05-07T05:21:19;8.63;;;7.43;;
4521;SDS011;2273;48.464;11.926;2023-05-07T05:23:47;11.63;;;8.50;;
4521;SDS011;2273;48.464;11.926;2023-05-07T05:26:16;12.60;;;8.50;;
4521;SDS011;2273;48.464;11.926;2023-05-07T05:28:42;13.83;;;9.67;;
4521;SDS011;2273;48.464;11.926;2023-05-07T05:31:07;16.03;;;8.60;;
4521;SDS011;2273;48.464;11.926;2023-05-07T05:33:35;13.10;;;9.20;;
4521;SDS011;2273;48.464;11.926;2023-05-07T05:36:03;9.27;;;8.17;;
4521;SDS011;2273;48.464;11.926;2023-05-07T05:38:29;9.80;;;8.20;;
4521;SDS011;2273;48.464;11.926;2023-05-07T05:40:55;10.63;;;8.00;;
4521;SDS011;2273;48.464;11.926;2023-05-07T05:43:21;12.43;;;9.17;;
4521;SDS011;2273;48.464;11.926;2023-05-07T05:45:47;11.43;;;8.87;;
4521;SDS011;2273;48.464;11.926;2023-05-07T05:48:12;11.70;;;8.77;;
4521;SDS011;2273;48.464;11.926;2023-05-07T05:50:38;12.27;;;8.50;;
4521;SDS011;2273;48.464;11.926;2023-05-07T05:53:04;10.00;;;8.20;;
4521;SDS011;2273;48.464;11.926;2023-05-07T05:55:30;8.97;;;7.73;;
4521;SDS011;2273;48.464;11.926;2023-05-07T05:57:58;14.23;;;8.70;;
4521;SDS011;2273;48.464;11.926;2023-05-07T06:00:25;12.47;;;9.27;;
4521;SDS011;2273;48.464;11.926;2023-05-07T06:03:00;10.43;;;8.43;;
4521;SDS011;2273;48.464;11.926;2023-05-07T06:05:26;10.13;;;8.80;;
4521;SDS011;2273;48.464;11.926;2023-05-07T06:07:54;10.70;;;8.70;;
4521;SDS011;2273;48.464;11.926;2023-05-07T06:10:19;11.20;;;8.47;;
4521;SDS011;2273;48.464;11.926;2023-05-07T06:12:45;11.67;;;8.17;;
4521;SDS011;2273;48.464;11.926;2023-05-07T06:15:11;10.60;;;8.30;;
4521;SDS011;2273;48.464;11.926;2023-05-07T06:17:38;15.90;;;8.63;;
4521;SDS011;2273;48.464;11.926;2023-05-07T06:20:03;10.60;;;8.83;;
4521;SDS011;2273;48.464;11.926;2023-05-07T06:22:29;11.70;;;9.30;;
4521;SDS011;2273;48.464;11.926;2023-05-07T06:24:55;13.43;;;9.47;;
4521;SDS011;2273;48.464;11.926;2023-05-07T06:27:21;13.13;;;9.00;;
4521;SDS011;2273;48.464;11.926;2023-05-07T06:29:48;10.93;;;9.17;;
4521;SDS011;2273;48.464;11.926;2023-05-07T06:32:15;11.33;;;8.90;;
4521;SDS011;2273;48.464;11.926;2023-05-07T06:34:43;11.37;;;9.23;;
4521;SDS011;2273;48.464;11.926;2023-05-07T06:37:08;12.00;;;10.00;;
4521;SDS011;2273;48.464;11.926;2023-05-07T06:39:51;11.00;;;8.03;;
4521;SDS011;2273;48.464;11.926;2023-05-07T06:42:17;10.03;;;8.40;;
4521;SDS011;2273;48.464;11.926;2023-05-07T06:44:45;13.60;;;10.10;;
4521;SDS011;2273;48.464;11.926;2023-05-07T06:47:13;15.17;;;10.17;;
4521;SDS011;2273;48.464;11.926;2023-05-07T06:49:39;12.50;;;10.37;;
4521;SDS011;2273;48.464;11.926;2023-05-07T06:52:05;10.87;;;8.73;;
4521;SDS011;2273;48.464;11.926;2023-05-07T06:54:30;12.70;;;8.63;;
4521;SDS011;2273;48.464;11.926;2023-05-07T06:56:56;10.57;;;8.37;;
4521;SDS011;2273;48.464;11.926;2023-05-07T06:59:24;10.97;;;7.80;;
4521;SDS011;2273;48.464;11.926;2023-05-07T07:01:50;12.10;;;8.93;;
4521;SDS011;2273;48.464;11.926;2023-05-07T07:04:16;11.17;;;8.57;;
4521;SDS011;2273;48.464;11.926;2023-05-07T07:06:45;10.20;;;7.53;;
4521;SDS011;2273;48.464;11.926;2023-05-07T07:09:12;15.17;;;8.43;;
4521;SDS011;2273;48.464;11.926;2023-05-07T07:11:39;17.90;;;9.40;;
4521;SDS011;2273;48.464;11.926;2023-05-07T07:14:05;12.17;;;9.13;;
4521;SDS011;2273;48.464;11.926;2023-05-07T07:16:33;11.93;;;8.73;;
4521;SDS011;2273;48.464;11.926;2023-05-07T07:19:00;13.57;;;8.50;;
4521;SDS011;2273;48.464;11.926;2023-05-07T07:21:26;11.57;;;8.23;;
4521;SDS011;2273;48.464;11.926;2023-05-07T07:23:52;10.37;;;8.43;;
4521;SDS011;2273;48.464;11.926;2023-05-07T07:26:18;9.80;;;7.30;;
4521;SDS011;2273;48.464;11.926;2023-05-07T07:28:44;9.87;;;7.60;;
4521;SDS011;2273;48.464;11.926;2023-05-07T07:31:11;8.37;;;7.43;;
4521;SDS011;2273;48.464;11.926;2023-05-07T07:33:37;16.83;;;9.33;;
4521;SDS011;2273;48.464;11.926;2023-05-07T07:36:02;9.90;;;7.73;;
4521;SDS011;2273;48.464;11.926;2023-05-07T07:38:28;10.17;;;7.50;;
4521;SDS011;2273;48.464;11.926;2023-05-07T07:40:54;9.03;;;7.03;;
4521;SDS011;2273;48.464;11.926;2023-05-07T07:43:22;9.87;;;7.43;;
4521;SDS011;2273;48.464;11.926;2023-05-07T07:45:47;12.40;;;7.63;;
4521;SDS011;2273;48.464;11.926;2023-05-07T07:48:13;11.33;;;6.80;;
4521;SDS011;2273;48.464;11.926;2023-05-07T07:50:38;9.10;;;6.67;;
4521;SDS011;2273;48.464;11.926;2023-05-07T07:53:05;8.93;;;6.17;;
4521;SDS011;2273;48.464;11.926;2023-05-07T07:55:31;9.50;;;7.20;;
4521;SDS011;2273;48.464;11.926;2023-05-07T07:57:58;11.87;;;7.50;;
4521;SDS011;2273;48.464;11.926;2023-05-07T08:00:23;12.70;;;6.23;;
4521;SDS011;2273;48.464;11.926;2023-05-07T08:02:53;12.17;;;7.20;;
4521;SDS011;2273;48.464;11.926;2023-05-07T08:05:24;9.37;;;6.90;;
4521;SDS011;2273;48.464;11.926;2023-05-07T08:07:51;9.47;;;6.80;;
4521;SDS011;2273;48.464;11.926;2023-05-07T08:10:21;10.63;;;7.10;;
4521;SDS011;2273;48.464;11.926;2023-05-07T08:12:49;9.60;;;7.07;;
4521;SDS011;2273;48.464;11.926;2023-05-07T08:15:15;10.50;;;6.53;;
4521;SDS011;2273;48.464;11.926;2023-05-07T08:17:41;11.13;;;7.50;;
4521;SDS011;2273;48.464;11.926;2023-05-07T08:20:08;10.53;;;7.20;;
4521;SDS011;2273;48.464;11.926;2023-05-07T08:22:34;8.20;;;6.43;;
4521;SDS011;2273;48.464;11.926;2023-05-07T08:25:00;10.40;;;7.40;;
4521;SDS011;2273;48.464;11.926;2023-05-07T08:27:27;12.63;;;6.30;;
4521;SDS011;2273;48.464;11.926;2023-05-07T08:29:53;9.43;;;7.57;;
4521;SDS011;2273;48.464;11.926;2023-05-07T08:32:20;8.20;;;6.40;;
4521;SDS011;2273;48.464;11.926;2023-05-07T08:34:45;7.70;;;6.17;;
4521;SDS011;2273;48.464;11.926;2023-05-07T08:37:11;8.50;;;7.00;;
4521;SDS011;2273;48.464;11.926;2023-05-07T08:39:37;13.93;;;7.30;;
4521;SDS011;2273;48.464;11.926;2023-05-07T08:42:07;8.53;;;6.83;;
4521;SDS011;2273;48.464;11.926;2023-05-07T08:44:34;11.70;;;7.40;;
4521;SDS011;2273;48.464;11.926;2023-05-07T08:47:00;11.23;;;7.70;;
4521;SDS011;2273;48.464;11.926;2023-05-07T08:49:28;8.30;;;7.10;;
4521;SDS011;2273;48.464;11.926;2023-05-07T08:51:54;8.97;;;7.10;;
4521;SDS011;2273;48.464;11.926;2023-05-07T08:54:21;10.50;;;7.87;;
4521;SDS011;2273;48.464;11.926;2023-05-07T08:56:47;9.60;;;8.43;;
4521;SDS011;2273;48.464;11.926;2023-05-07T08:59:13;10.33;;;8.27;;
4521;SDS011;2273;48.464;11.926;2023-05-07T09:01:41;9.30;;;6.97;;
4521;SDS011;2273;48.464;11.926;2023-05-07T09:04:06;12.87;;;8.37;;
4521;SDS011;2273;48.464;11.926;2023-05-07T09:06:33;8.70;;;7.43;;
4521;SDS011;2273;48.464;11.926;2023-05-07T09:09:00;12.20;;;8.10;;
4521;SDS011;2273;48.464;11.926;2023-05-07T09:11:28;11.23;;;7.90;;
4521;SDS011;2273;48.464;11.926;2023-05-07T09:13:56;11.40;;;7.90;;
4521;SDS011;2273;48.464;11.926;2023-05-07T09:16:24;11.53;;;8.70;;
4521;SDS011;2273;48.464;11.926;2023-05-07T09:18:51;11.10;;;8.40;;
4521;SDS011;2273;48.464;11.926;2023-05-07T09:21:17;9.50;;;8.03;;
4521;SDS011;2273;48.464;11.926;2023-05-07T09:23:45;12.00;;;8.00;;
4521;SDS011;2273;48.464;11.926;2023-05-07T09:26:11;16.10;;;8.90;;
4521;SDS011;2273;48.464;11.926;2023-05-07T09:28:38;12.53;;;8.93;;
4521;SDS011;2273;48.464;11.926;2023-05-07T09:31:06;11.73;;;9.23;;
4521;SDS011;2273;48.464;11.926;2023-05-07T09:33:31;9.73;;;7.70;;
4521;SDS011;2273;48.464;11.926;2023-05-07T09:36:06;13.20;;;7.90;;
4521;SDS011;2273;48.464;11.926;2023-05-07T09:38:34;10.73;;;8.00;;
4521;SDS011;2273;48.464;11.926;2023-05-07T09:43:39;8.43;;;7.00;;
4521;SDS011;2273;48.464;11.926;2023-05-07T09:46:16;10.50;;;7.27;;
4521;SDS011;2273;48.464;11.926;2023-05-07T09:48:48;10.23;;;7.57;;
4521;SDS011;2273;48.464;11.926;2023-05-07T09:51:25;9.50;;;7.37;;
4521;SDS011;2273;48.464;11.926;2023-05-07T09:53:56;8.63;;;6.67;;
4521;SDS011;2273;48.464;11.926;2023-05-07T09:56:23;8.23;;;6.50;;
4521;SDS011;2273;48.464;11.926;2023-05-07T09:58:49;9.60;;;6.80;;
4521;SDS011;2273;48.464;11.926;2023-05-07T10:01:17;11.00;;;6.63;;
4521;SDS011;2273;48.464;11.926;2023-05-07T10:03:44;6.93;;;5.77;;
4521;SDS011;2273;48.464;11.926;2023-05-07T10:06:10;7.57;;;5.70;;
4521;SDS011;2273;48.464;11.926;2023-05-07T10:08:37;7.83;;;6.30;;
4521;SDS011;2273;48.464;11.926;2023-05-07T10:11:05;7.63;;;4.77;;
4521;SDS011;2273;48.464;11.926;2023-05-07T10:13:34;9.90;;;5.00;;
4521;SDS011;2273;48.464;11.926;2023-05-07T10:16:06;8.27;;;5.93;;
4521;SDS011;2273;48.464;11.926;2023-05-07T10:18:38;7.00;;;5.60;;
4521;SDS011;2273;48.464;11.926;2023-05-07T10:21:20;5.80;;;4.33;;
4521;SDS011;2273;48.464;11.926;2023-05-07T10:23:49;6.00;;;4.67;;
4521;SDS011;2273;48.464;11.926;2023-05-07T10:26:29;5.57;;;4.40;;
4521;SDS011;2273;48.464;11.926;2023-05-07T10:28:57;8.20;;;4.80;;
4521;SDS011;2273;48.464;11.926;2023-05-07T10:31:37;5.57;;;4.30;;
4521;SDS011;2273;48.464;11.926;2023-05-07T10:34:15;12.83;;;5.40;;
4521;SDS011;2273;48.464;11.926;2023-05-07T10:36:44;7.23;;;5.23;;
4521;SDS011;2273;48.464;11.926;2023-05-07T10:39:09;7.20;;;4.60;;
4521;SDS011;2273;48.464;11.926;2023-05-07T10:41:36;7.13;;;4.40;;
4521;SDS011;2273;48.464;11.926;2023-05-07T10:44:02;5.13;;;4.30;;
4521;SDS011;2273;48.464;11.926;2023-05-07T10:46:30;5.70;;;4.50;;
4521;SDS011;2273;48.464;11.926;2023-05-07T10:49:07;6.53;;;3.83;;
4521;SDS011;2273;48.464;11.926;2023-05-07T10:52:36;4.80;;;3.70;;
4521;SDS011;2273;48.464;11.926;2023-05-07T10:54:46;4.40;;;3.33;;
4521;SDS011;2273;48.464;11.926;2023-05-07T10:57:33;7.57;;;3.73;;
4521;SDS011;2273;48.464;11.926;2023-05-07T11:03:04;5.30;;;3.67;;
4521;SDS011;2273;48.464;11.926;2023-05-07T11:05:43;7.17;;;3.57;;
4521;SDS011;2273;48.464;11.926;2023-05-07T11:08:17;5.37;;;3.30;;
4521;SDS011;2273;48.464;11.926;2023-05-07T11:11:01;5.60;;;2.90;;
4521;SDS011;2273;48.464;11.926;2023-05-07T11:13:42;4.83;;;3.60;;
4521;SDS011;2273;48.464;11.926;2023-05-07T11:16:32;4.40;;;3.00;;
4521;SDS011;2273;48.464;11.926;2023-05-07T11:19:10;4.40;;;2.40;;
4521;SDS011;2273;48.464;11.926;2023-05-07T11:21:41;7.43;;;2.50;;
4521;SDS011;2273;48.464;11.926;2023-05-07T11:24:13;6.93;;;2.73;;
4521;SDS011;2273;48.464;11.926;2023-05-07T11:26:54;4.03;;;3.30;;
4521;SDS011;2273;48.464;11.926;2023-05-07T11:29:22;6.40;;;3.00;;
4521;SDS011;2273;48.464;11.926;2023-05-07T11:31:51;5.40;;;3.10;;
4521;SDS011;2273;48.464;11.926;2023-05-07T11:34:22;3.50;;;2.57;;
4521;SDS011;2273;48.464;11.926;2023-05-07T11:36:48;3.63;;;3.00;;
4521;SDS011;2273;48.464;11.926;2023-05-07T11:41:50;4.83;;;2.97;;
4521;SDS011;2273;48.464;11.926;2023-05-07T11:44:16;3.50;;;3.03;;
4521;SDS011;2273;48.464;11.926;2023-05-07T11:46:42;4.63;;;3.37;;
4521;SDS011;2273;48.464;11.926;2023-05-07T11:49:09;9.47;;;2.90;;
4521;SDS011;2273;48.464;11.926;2023-05-07T11:51:34;5.30;;;3.30;;
4521;SDS011;2273;48.464;11.926;2023-05-07T11:54:00;9.53;;;3.23;;
4521;SDS011;2273;48.464;11.926;2023-05-07T11:56:28;3.63;;;2.83;;
4521;SDS011;2273;48.464;11.926;2023-05-07T11:58:54;3.17;;;2.53;;
4521;SDS011;2273;48.464;11.926;2023-05-07T12:01:20;3.70;;;2.87;;
4521;SDS011;2273;48.464;11.926;2023-05-07T12:03:45;5.13;;;2.70;;
4521;SDS011;2273;48.464;11.926;2023-05-07T12:06:11;3.73;;;2.77;;
4521;SDS011;2273;48.464;11.926;2023-05-07T12:08:38;8.03;;;2.43;;
4521;SDS011;2273;48.464;11.926;2023-05-07T12:11:07;5.03;;;2.27;;
4521;SDS011;2273;48.464;11.926;2023-05-07T12:13:34;4.70;;;2.70;;
4521;SDS011;2273;48.464;11.926;2023-05-07T12:16:00;3.40;;;2.40;;
4521;SDS011;2273;48.464;11.926;2023-05-07T12:18:28;3.37;;;2.73;;
4521;SDS011;2273;48.464;11.926;2023-05-07T12:20:54;3.87;;;2.50;;
4521;SDS011;2273;48.464;11.926;2023-05-07T12:23:19;4.27;;;2.40;;
4521;SDS011;2273;48.464;11.926;2023-05-07T12:25:45;4.90;;;2.50;;
4521;SDS011;2273;48.464;11.926;2023-05-07T12:28:14;4.10;;;2.73;;
4521;SDS011;2273;48.464;11.926;2023-05-07T12:30:44;3.27;;;2.50;;
4521;SDS011;2273;48.464;11.926;2023-05-07T12:33:10;3.80;;;2.40;;
4521;SDS011;2273;48.464;11.926;2023-05-07T12:35:37;4.00;;;2.40;;
4521;SDS011;2273;48.464;11.926;2023-05-07T12:38:07;3.73;;;2.23;;
4521;SDS011;2273;48.464;11.926;2023-05-07T12:43:03;2.83;;;2.30;;
4521;SDS011;2273;48.464;11.926;2023-05-07T12:45:28;3.47;;;2.63;;
4521;SDS011;2273;48.464;11.926;2023-05-07T12:47:53;3.53;;;2.77;;
4521;SDS011;2273;48.464;11.926;2023-05-07T12:50:19;5.50;;;2.70;;
4521;SDS011;2273;48.464;11.926;2023-05-07T12:52:46;2.63;;;2.33;;
4521;SDS011;2273;48.464;11.926;2023-05-07T12:55:16;4.83;;;2.20;;
4521;SDS011;2273;48.464;11.926;2023-05-07T12:57:42;4.83;;;2.00;;
4521;SDS011;2273;48.464;11.926;2023-05-07T13:00:09;5.60;;;2.30;;
4521;SDS011;2273;48.464;11.926;2023-05-07T13:02:38;4.77;;;2.50;;
4521;SDS011;2273;48.464;11.926;2023-05-07T13:05:05;3.10;;;2.13;;
4521;SDS011;2273;48.464;11.926;2023-05-07T13:07:30;6.07;;;2.67;;
4521;SDS011;2273;48.464;11.926;2023-05-07T13:09:55;3.40;;;2.03;;
4521;SDS011;2273;48.464;11.926;2023-05-07T13:12:21;3.33;;;2.30;;
4521;SDS011;2273;48.464;11.926;2023-05-07T13:14:46;2.57;;;2.00;;
4521;SDS011;2273;48.464;11.926;2023-05-07T13:17:12;3.70;;;2.30;;
4521;SDS011;2273;48.464;11.926;2023-05-07T13:19:37;5.13;;;2.60;;
4521;SDS011;2273;48.464;11.926;2023-05-07T13:22:03;3.30;;;2.13;;
4521;SDS011;2273;48.464;11.926;2023-05-07T13:24:28;6.10;;;2.30;;
4521;SDS011;2273;48.464;11.926;2023-05-07T13:26:54;2.80;;;2.17;;
4521;SDS011;2273;48.464;11.926;2023-05-07T13:29:20;2.30;;;1.90;;
4521;SDS011;2273;48.464;11.926;2023-05-07T13:31:47;3.20;;;2.50;;
4521;SDS011;2273;48.464;11.926;2023-05-07T13:34:12;3.00;;;2.20;;
4521;SDS011;2273;48.464;11.926;2023-05-07T13:36:38;3.00;;;1.83;;
4521;SDS011;2273;48.464;11.926;2023-05-07T13:39:04;2.43;;;1.83;;
4521;SDS011;2273;48.464;11.926;2023-05-07T13:41:31;3.13;;;2.00;;
4521;SDS011;2273;48.464;11.926;2023-05-07T13:43:56;4.50;;;2.23;;
4521;SDS011;2273;48.464;11.926;2023-05-07T13:46:22;4.87;;;2.90;;
4521;SDS011;2273;48.464;11.926;2023-05-07T13:48:47;4.97;;;3.73;;
4521;SDS011;2273;48.464;11.926;2023-05-07T13:51:12;5.30;;;3.43;;
4521;SDS011;2273;48.464;11.926;2023-05-07T13:53:38;4.20;;;2.50;;
4521;SDS011;2273;48.464;11.926;2023-05-07T13:56:04;3.43;;;2.50;;
4521;SDS011;2273;48.464;11.926;2023-05-07T13:58:30;3.50;;;2.87;;
4521;SDS011;2273;48.464;11.926;2023-05-07T14:00:55;3.93;;;2.80;;
4521;SDS011;2273;48.464;11.926;2023-05-07T14:03:20;3.70;;;2.20;;
4521;SDS011;2273;48.464;11.926;2023-05-07T14:05:46;4.17;;;3.20;;
4521;SDS011;2273;48.464;11.926;2023-05-07T14:08:11;7.50;;;2.60;;
4521;SDS011;2273;48.464;11.926;2023-05-07T14:10:39;6.10;;;2.93;;
4521;SDS011;2273;48.464;11.926;2023-05-07T14:13:05;6.40;;;3.40;;
4521;SDS011;2273;48.464;11.926;2023-05-07T14:15:31;5.60;;;2.53;;
4521;SDS011;2273;48.464;11.926;2023-05-07T14:17:57;3.83;;;2.10;;
4521;SDS011;2273;48.464;11.926;2023-05-07T14:20:24;2.60;;;2.03;;
4521;SDS011;2273;48.464;11.926;2023-05-07T14:22:50;4.23;;;2.40;;
4521;SDS011;2273;48.464;11.926;2023-05-07T14:25:15;4.17;;;2.17;;
4521;SDS011;2273;48.464;11.926;2023-05-07T14:27:44;6.17;;;2.50;;
4521;SDS011;2273;48.464;11.926;2023-05-07T14:30:09;3.13;;;2.10;;
4521;SDS011;2273;48.464;11.926;2023-05-07T14:32:35;5.03;;;2.27;;
4521;SDS011;2273;48.464;11.926;2023-05-07T14:35:01;6.63;;;2.83;;
4521;SDS011;2273;48.464;11.926;2023-05-07T14:37:26;3.50;;;2.53;;
4521;SDS011;2273;48.464;11.926;2023-05-07T14:39:52;2.60;;;2.13;;
4521;SDS011;2273;48.464;11.926;2023-05-07T14:42:17;4.30;;;2.50;;
4521;SDS011;2273;48.464;11.926;2023-05-07T14:44:43;6.00;;;2.80;;
4521;SDS011;2273;48.464;11.926;2023-05-07T14:47:10;3.00;;;2.50;;
4521;SDS011;2273;48.464;11.926;2023-05-07T14:49:35;3.93;;;2.57;;
4521;SDS011;2273;48.464;11.926;2023-05-07T14:52:02;6.50;;;2.33;;
4521;SDS011;2273;48.464;11.926;2023-05-07T14:54:28;3.57;;;2.27;;
4521;SDS011;2273;48.464;11.926;2023-05-07T14:56:53;4.60;;;2.80;;
4521;SDS011;2273;48.464;11.926;2023-05-07T14:59:19;5.23;;;2.47;;
4521;SDS011;2273;48.464;11.926;2023-05-07T15:01:48;3.57;;;2.30;;
4521;SDS011;2273;48.464;11.926;2023-05-07T15:04:14;4.43;;;2.30;;
4521;SDS011;2273;48.464;11.926;2023-05-07T15:06:41;3.00;;;2.10;;
4521;SDS011;2273;48.464;11.926;2023-05-07T15:09:06;3.27;;;2.10;;
4521;SDS011;2273;48.464;11.926;2023-05-07T15:11:33;3.20;;;2.60;;